sensor_id;sensor_type;location;lat;lon;timestamp;P1;durP1;ratioP1;P2;durP2;ratioP2
42964;SDS011;28604;51.204;22.552;2023-06-22T00:02:14;10.70;;;8.73;;
42964;SDS011;28604;51.204;22.552;2023-06-22T00:04:40;9.60;;;8.80;;
42964;SDS011;28604;51.204;22.552;2023-06-22T00:07:06;10.15;;;8.45;;
42964;SDS011;28604;51.204;22.552;2023-06-22T00:09:32;8.77;;;8.07;;
42964;SDS011;28604;51.204;22.552;2023-06-22T00:11:58;9.70;;;8.90;;
42964;SDS011;28604;51.204;22.552;2023-06-22T00:16:58;9.40;;;8.32;;
42964;SDS011;28604;51.204;22.552;2023-06-22T00:19:24;9.80;;;7.93;;
42964;SDS011;28604;51.204;22.552;2023-06-22T00:21:50;11.25;;;9.02;;
42964;SDS011;28604;51.204;22.552;2023-06-22T00:24:20;8.52;;;7.93;;
42964;SDS011;28604;51.204;22.552;2023-06-22T00:26:49;9.30;;;8.48;;
42964;SDS011;28604;51.204;22.552;2023-06-22T00:29:16;9.63;;;7.93;;
42964;SDS011;28604;51.204;22.552;2023-06-22T00:31:43;9.45;;;8.35;;
42964;SDS011;28604;51.204;22.552;2023-06-22T00:34:09;9.85;;;8.80;;
42964;SDS011;28604;51.204;22.552;2023-06-22T00:36:36;9.65;;;8.75;;
42964;SDS011;28604;51.204;22.552;2023-06-22T00:39:02;9.52;;;8.73;;
42964;SDS011;28604;51.204;22.552;2023-06-22T00:41:29;10.50;;;8.43;;
42964;SDS011;28604;51.204;22.552;2023-06-22T00:46:30;15.93;;;8.85;;
42964;SDS011;28604;51.204;22.552;2023-06-22T00:48:56;9.82;;;8.98;;
42964;SDS011;28604;51.204;22.552;2023-06-22T00:51:23;9.45;;;8.55;;
42964;SDS011;28604;51.204;22.552;2023-06-22T00:53:50;11.60;;;8.93;;
42964;SDS011;28604;51.204;22.552;2023-06-22T00:56:18;9.50;;;8.60;;
42964;SDS011;28604;51.204;22.552;2023-06-22T00:58:45;9.75;;;8.85;;
42964;SDS011;28604;51.204;22.552;2023-06-22T01:01:13;9.77;;;8.98;;
42964;SDS011;28604;51.204;22.552;2023-06-22T01:03:39;9.60;;;8.60;;
42964;SDS011;28604;51.204;22.552;2023-06-22T01:06:10;11.27;;;8.70;;
42964;SDS011;28604;51.204;22.552;2023-06-22T01:09:01;9.38;;;8.43;;
42964;SDS011;28604;51.204;22.552;2023-06-22T01:11:38;9.02;;;8.20;;
42964;SDS011;28604;51.204;22.552;2023-06-22T01:14:15;10.57;;;9.30;;
42964;SDS011;28604;51.204;22.552;2023-06-22T01:16:50;9.93;;;8.02;;
42964;SDS011;28604;51.204;22.552;2023-06-22T01:19:34;12.57;;;8.70;;
42964;SDS011;28604;51.204;22.552;2023-06-22T01:22:05;13.02;;;9.38;;
42964;SDS011;28604;51.204;22.552;2023-06-22T01:25:20;10.52;;;9.55;;
42964;SDS011;28604;51.204;22.552;2023-06-22T01:27:47;12.07;;;9.07;;
42964;SDS011;28604;51.204;22.552;2023-06-22T01:30:15;11.93;;;9.05;;
42964;SDS011;28604;51.204;22.552;2023-06-22T01:32:44;10.73;;;9.70;;
42964;SDS011;28604;51.204;22.552;2023-06-22T01:35:11;9.75;;;8.95;;
42964;SDS011;28604;51.204;22.552;2023-06-22T01:37:38;11.02;;;9.55;;
42964;SDS011;28604;51.204;22.552;2023-06-22T01:40:07;12.98;;;9.00;;
42964;SDS011;28604;51.204;22.552;2023-06-22T01:42:35;10.25;;;9.25;;
42964;SDS011;28604;51.204;22.552;2023-06-22T01:45:02;10.88;;;9.63;;
42964;SDS011;28604;51.204;22.552;2023-06-22T01:47:29;10.48;;;9.50;;
42964;SDS011;28604;51.204;22.552;2023-06-22T01:49:56;11.73;;;10.18;;
42964;SDS011;28604;51.204;22.552;2023-06-22T01:52:22;12.13;;;9.77;;
42964;SDS011;28604;51.204;22.552;2023-06-22T01:54:48;11.40;;;10.02;;
42964;SDS011;28604;51.204;22.552;2023-06-22T01:57:14;12.93;;;10.45;;
42964;SDS011;28604;51.204;22.552;2023-06-22T02:04:48;11.75;;;10.65;;
42964;SDS011;28604;51.204;22.552;2023-06-22T02:07:20;12.70;;;11.38;;
42964;SDS011;28604;51.204;22.552;2023-06-22T02:09:49;10.90;;;9.98;;
42964;SDS011;28604;51.204;22.552;2023-06-22T02:12:18;10.57;;;9.65;;
42964;SDS011;28604;51.204;22.552;2023-06-22T02:14:48;11.95;;;10.35;;
42964;SDS011;28604;51.204;22.552;2023-06-22T02:17:17;20.70;;;10.35;;
42964;SDS011;28604;51.204;22.552;2023-06-22T02:19:43;12.98;;;10.65;;
42964;SDS011;28604;51.204;22.552;2023-06-22T02:22:10;12.73;;;11.38;;
42964;SDS011;28604;51.204;22.552;2023-06-22T02:24:36;12.85;;;10.38;;
42964;SDS011;28604;51.204;22.552;2023-06-22T02:27:02;12.38;;;10.40;;
42964;SDS011;28604;51.204;22.552;2023-06-22T02:29:31;10.27;;;9.35;;
42964;SDS011;28604;51.204;22.552;2023-06-22T02:31:57;18.10;;;11.88;;
42964;SDS011;28604;51.204;22.552;2023-06-22T02:34:23;16.77;;;11.18;;
42964;SDS011;28604;51.204;22.552;2023-06-22T02:36:50;12.30;;;10.38;;
42964;SDS011;28604;51.204;22.552;2023-06-22T02:39:20;15.18;;;10.10;;
42964;SDS011;28604;51.204;22.552;2023-06-22T02:41:52;11.82;;;10.52;;
42964;SDS011;28604;51.204;22.552;2023-06-22T02:44:21;16.15;;;10.23;;
42964;SDS011;28604;51.204;22.552;2023-06-22T02:46:47;12.98;;;10.38;;
42964;SDS011;28604;51.204;22.552;2023-06-22T02:49:15;12.00;;;9.85;;
42964;SDS011;28604;51.204;22.552;2023-06-22T02:51:44;11.88;;;10.75;;
42964;SDS011;28604;51.204;22.552;2023-06-22T02:54:13;13.25;;;10.73;;
42964;SDS011;28604;51.204;22.552;2023-06-22T02:56:40;15.32;;;11.02;;
42964;SDS011;28604;51.204;22.552;2023-06-22T02:59:09;21.05;;;10.77;;
42964;SDS011;28604;51.204;22.552;2023-06-22T03:01:38;14.80;;;10.45;;
42964;SDS011;28604;51.204;22.552;2023-06-22T03:04:09;11.95;;;10.85;;
42964;SDS011;28604;51.204;22.552;2023-06-22T03:06:35;11.90;;;10.88;;
42964;SDS011;28604;51.204;22.552;2023-06-22T03:09:03;13.13;;;11.45;;
42964;SDS011;28604;51.204;22.552;2023-06-22T03:11:32;17.88;;;11.32;;
42964;SDS011;28604;51.204;22.552;2023-06-22T03:13:59;12.38;;;11.00;;
42964;SDS011;28604;51.204;22.552;2023-06-22T03:16:27;15.68;;;10.93;;
42964;SDS011;28604;51.204;22.552;2023-06-22T03:18:54;16.05;;;11.38;;
42964;SDS011;28604;51.204;22.552;2023-06-22T03:21:26;13.63;;;10.70;;
42964;SDS011;28604;51.204;22.552;2023-06-22T03:23:53;12.57;;;11.38;;
42964;SDS011;28604;51.204;22.552;2023-06-22T03:26:20;15.50;;;11.93;;
42964;SDS011;28604;51.204;22.552;2023-06-22T03:28:46;13.90;;;11.93;;
42964;SDS011;28604;51.204;22.552;2023-06-22T03:31:12;19.00;;;12.23;;
42964;SDS011;28604;51.204;22.552;2023-06-22T03:33:39;17.70;;;11.27;;
42964;SDS011;28604;51.204;22.552;2023-06-22T03:36:05;12.70;;;11.40;;
42964;SDS011;28604;51.204;22.552;2023-06-22T03:38:32;17.42;;;12.40;;
42964;SDS011;28604;51.204;22.552;2023-06-22T03:40:58;17.70;;;12.52;;
42964;SDS011;28604;51.204;22.552;2023-06-22T03:43:25;19.73;;;12.13;;
42964;SDS011;28604;51.204;22.552;2023-06-22T03:45:51;16.90;;;11.55;;
42964;SDS011;28604;51.204;22.552;2023-06-22T03:48:17;17.20;;;12.15;;
42964;SDS011;28604;51.204;22.552;2023-06-22T03:50:43;15.30;;;13.10;;
42964;SDS011;28604;51.204;22.552;2023-06-22T03:53:09;21.58;;;12.32;;
42964;SDS011;28604;51.204;22.552;2023-06-22T03:55:36;17.35;;;12.95;;
42964;SDS011;28604;51.204;22.552;2023-06-22T04:03:33;14.55;;;12.55;;
42964;SDS011;28604;51.204;22.552;2023-06-22T04:05:59;13.02;;;11.50;;
42964;SDS011;28604;51.204;22.552;2023-06-22T04:08:25;13.18;;;11.77;;
42964;SDS011;28604;51.204;22.552;2023-06-22T04:10:51;18.40;;;12.07;;
42964;SDS011;28604;51.204;22.552;2023-06-22T04:13:17;16.65;;;11.82;;
42964;SDS011;28604;51.204;22.552;2023-06-22T04:15:43;13.93;;;12.15;;
42964;SDS011;28604;51.204;22.552;2023-06-22T04:18:09;11.98;;;10.88;;
42964;SDS011;28604;51.204;22.552;2023-06-22T04:20:35;14.27;;;11.05;;
42964;SDS011;28604;51.204;22.552;2023-06-22T04:23:01;13.88;;;12.38;;
42964;SDS011;28604;51.204;22.552;2023-06-22T04:25:27;13.90;;;12.02;;
42964;SDS011;28604;51.204;22.552;2023-06-22T04:27:53;16.38;;;11.82;;
42964;SDS011;28604;51.204;22.552;2023-06-22T04:30:19;13.70;;;12.27;;
42964;SDS011;28604;51.204;22.552;2023-06-22T04:32:45;17.80;;;12.73;;
42964;SDS011;28604;51.204;22.552;2023-06-22T04:35:11;17.75;;;12.15;;
42964;SDS011;28604;51.204;22.552;2023-06-22T04:37:37;15.65;;;13.27;;
42964;SDS011;28604;51.204;22.552;2023-06-22T04:40:04;16.73;;;13.48;;
42964;SDS011;28604;51.204;22.552;2023-06-22T04:42:33;17.15;;;14.15;;
42964;SDS011;28604;51.204;22.552;2023-06-22T04:45:00;16.02;;;13.68;;
42964;SDS011;28604;51.204;22.552;2023-06-22T04:47:25;15.65;;;14.00;;
42964;SDS011;28604;51.204;22.552;2023-06-22T04:49:52;18.40;;;13.73;;
42964;SDS011;28604;51.204;22.552;2023-06-22T04:52:17;20.02;;;13.18;;
42964;SDS011;28604;51.204;22.552;2023-06-22T04:54:45;16.85;;;13.95;;
42964;SDS011;28604;51.204;22.552;2023-06-22T04:57:15;18.05;;;14.35;;
42964;SDS011;28604;51.204;22.552;2023-06-22T04:59:41;15.05;;;13.45;;
42964;SDS011;28604;51.204;22.552;2023-06-22T05:02:07;15.23;;;13.70;;
42964;SDS011;28604;51.204;22.552;2023-06-22T05:04:34;16.05;;;12.88;;
42964;SDS011;28604;51.204;22.552;2023-06-22T05:07:03;17.23;;;12.07;;
42964;SDS011;28604;51.204;22.552;2023-06-22T05:09:30;21.25;;;13.65;;
42964;SDS011;28604;51.204;22.552;2023-06-22T05:11:56;13.73;;;12.50;;
42964;SDS011;28604;51.204;22.552;2023-06-22T05:14:23;18.73;;;13.68;;
42964;SDS011;28604;51.204;22.552;2023-06-22T05:16:49;22.05;;;13.32;;
42964;SDS011;28604;51.204;22.552;2023-06-22T05:19:17;26.33;;;14.85;;
42964;SDS011;28604;51.204;22.552;2023-06-22T05:21:43;15.02;;;13.50;;
42964;SDS011;28604;51.204;22.552;2023-06-22T05:24:09;17.65;;;13.80;;
42964;SDS011;28604;51.204;22.552;2023-06-22T05:26:35;24.17;;;13.50;;
42964;SDS011;28604;51.204;22.552;2023-06-22T05:29:01;14.75;;;13.23;;
42964;SDS011;28604;51.204;22.552;2023-06-22T05:31:28;23.40;;;14.80;;
42964;SDS011;28604;51.204;22.552;2023-06-22T05:33:55;19.23;;;13.93;;
42964;SDS011;28604;51.204;22.552;2023-06-22T05:36:21;19.67;;;13.98;;
42964;SDS011;28604;51.204;22.552;2023-06-22T05:38:51;14.82;;;13.23;;
42964;SDS011;28604;51.204;22.552;2023-06-22T05:41:17;17.45;;;13.32;;
42964;SDS011;28604;51.204;22.552;2023-06-22T05:43:44;16.00;;;14.13;;
42964;SDS011;28604;51.204;22.552;2023-06-22T05:46:09;15.07;;;13.52;;
42964;SDS011;28604;51.204;22.552;2023-06-22T05:48:36;20.10;;;13.43;;
42964;SDS011;28604;51.204;22.552;2023-06-22T05:51:02;17.75;;;14.07;;
42964;SDS011;28604;51.204;22.552;2023-06-22T05:53:28;18.88;;;14.25;;
42964;SDS011;28604;51.204;22.552;2023-06-22T05:55:54;21.15;;;14.10;;
42964;SDS011;28604;51.204;22.552;2023-06-22T05:58:20;17.00;;;13.68;;
42964;SDS011;28604;51.204;22.552;2023-06-22T06:00:46;19.25;;;15.00;;
42964;SDS011;28604;51.204;22.552;2023-06-22T06:03:13;18.27;;;13.18;;
42964;SDS011;28604;51.204;22.552;2023-06-22T06:05:42;15.40;;;12.75;;
42964;SDS011;28604;51.204;22.552;2023-06-22T06:08:09;14.38;;;12.95;;
42964;SDS011;28604;51.204;22.552;2023-06-22T06:19:02;24.42;;;14.18;;
42964;SDS011;28604;51.204;22.552;2023-06-22T06:21:28;16.35;;;13.80;;
42964;SDS011;28604;51.204;22.552;2023-06-22T06:23:54;15.65;;;12.88;;
42964;SDS011;28604;51.204;22.552;2023-06-22T06:26:20;16.70;;;13.25;;
42964;SDS011;28604;51.204;22.552;2023-06-22T06:28:53;13.95;;;12.48;;
42964;SDS011;28604;51.204;22.552;2023-06-22T06:31:20;17.27;;;13.07;;
42964;SDS011;28604;51.204;22.552;2023-06-22T06:33:46;17.45;;;11.55;;
42964;SDS011;28604;51.204;22.552;2023-06-22T06:36:12;16.27;;;12.55;;
42964;SDS011;28604;51.204;22.552;2023-06-22T06:38:38;19.52;;;13.35;;
42964;SDS011;28604;51.204;22.552;2023-06-22T06:41:04;20.40;;;13.95;;
42964;SDS011;28604;51.204;22.552;2023-06-22T06:43:30;15.45;;;13.50;;
42964;SDS011;28604;51.204;22.552;2023-06-22T06:45:57;13.98;;;12.68;;
42964;SDS011;28604;51.204;22.552;2023-06-22T06:48:22;16.27;;;12.63;;
42964;SDS011;28604;51.204;22.552;2023-06-22T06:50:49;13.18;;;11.52;;
42964;SDS011;28604;51.204;22.552;2023-06-22T06:53:15;12.55;;;11.32;;
42964;SDS011;28604;51.204;22.552;2023-06-22T06:55:41;9.90;;;9.00;;
42964;SDS011;28604;51.204;22.552;2023-06-22T06:58:07;13.98;;;8.52;;
42964;SDS011;28604;51.204;22.552;2023-06-22T07:00:35;10.07;;;9.27;;
42964;SDS011;28604;51.204;22.552;2023-06-22T07:03:01;11.70;;;10.55;;
42964;SDS011;28604;51.204;22.552;2023-06-22T07:05:27;10.40;;;9.18;;
42964;SDS011;28604;51.204;22.552;2023-06-22T07:07:53;10.30;;;9.55;;
42964;SDS011;28604;51.204;22.552;2023-06-22T07:10:19;14.75;;;10.35;;
42964;SDS011;28604;51.204;22.552;2023-06-22T07:12:45;11.52;;;9.85;;
42964;SDS011;28604;51.204;22.552;2023-06-22T07:15:11;11.73;;;10.60;;
42964;SDS011;28604;51.204;22.552;2023-06-22T07:17:38;12.43;;;11.18;;
42964;SDS011;28604;51.204;22.552;2023-06-22T07:20:08;11.75;;;10.80;;
42964;SDS011;28604;51.204;22.552;2023-06-22T07:22:38;15.85;;;10.80;;
42964;SDS011;28604;51.204;22.552;2023-06-22T07:25:05;11.57;;;10.50;;
42964;SDS011;28604;51.204;22.552;2023-06-22T07:27:35;14.85;;;11.18;;
42964;SDS011;28604;51.204;22.552;2023-06-22T07:30:03;12.43;;;10.88;;
42964;SDS011;28604;51.204;22.552;2023-06-22T07:32:30;12.98;;;11.57;;
42964;SDS011;28604;51.204;22.552;2023-06-22T07:34:56;12.43;;;11.32;;
42964;SDS011;28604;51.204;22.552;2023-06-22T07:37:21;12.65;;;11.32;;
42964;SDS011;28604;51.204;22.552;2023-06-22T07:39:48;12.63;;;11.40;;
42964;SDS011;28604;51.204;22.552;2023-06-22T07:42:15;11.93;;;10.93;;
42964;SDS011;28604;51.204;22.552;2023-06-22T07:44:44;13.52;;;10.90;;
42964;SDS011;28604;51.204;22.552;2023-06-22T07:47:10;13.95;;;12.70;;
42964;SDS011;28604;51.204;22.552;2023-06-22T07:49:36;11.43;;;10.55;;
42964;SDS011;28604;51.204;22.552;2023-06-22T07:52:02;11.75;;;10.75;;
42964;SDS011;28604;51.204;22.552;2023-06-22T07:54:28;12.10;;;10.90;;
42964;SDS011;28604;51.204;22.552;2023-06-22T07:56:54;13.13;;;11.93;;
42964;SDS011;28604;51.204;22.552;2023-06-22T07:59:20;11.50;;;10.65;;
42964;SDS011;28604;51.204;22.552;2023-06-22T08:01:46;11.50;;;10.68;;
42964;SDS011;28604;51.204;22.552;2023-06-22T08:04:14;12.50;;;11.27;;
42964;SDS011;28604;51.204;22.552;2023-06-22T08:06:40;12.20;;;11.05;;
42964;SDS011;28604;51.204;22.552;2023-06-22T08:09:07;12.20;;;11.10;;
42964;SDS011;28604;51.204;22.552;2023-06-22T08:11:32;12.30;;;11.40;;
42964;SDS011;28604;51.204;22.552;2023-06-22T08:13:59;11.88;;;10.57;;
42964;SDS011;28604;51.204;22.552;2023-06-22T08:16:25;12.18;;;11.07;;
42964;SDS011;28604;51.204;22.552;2023-06-22T08:18:51;11.98;;;10.93;;
42964;SDS011;28604;51.204;22.552;2023-06-22T08:21:17;12.60;;;11.38;;
42964;SDS011;28604;51.204;22.552;2023-06-22T08:23:43;11.77;;;10.77;;
42964;SDS011;28604;51.204;22.552;2023-06-22T08:26:09;15.32;;;11.70;;
42964;SDS011;28604;51.204;22.552;2023-06-22T08:28:35;12.23;;;11.07;;
42964;SDS011;28604;51.204;22.552;2023-06-22T08:31:01;13.75;;;12.55;;
42964;SDS011;28604;51.204;22.552;2023-06-22T08:33:28;13.57;;;12.18;;
42964;SDS011;28604;51.204;22.552;2023-06-22T08:35:55;13.18;;;12.00;;
42964;SDS011;28604;51.204;22.552;2023-06-22T08:38:23;12.93;;;11.88;;
42964;SDS011;28604;51.204;22.552;2023-06-22T08:40:49;13.43;;;12.15;;
42964;SDS011;28604;51.204;22.552;2023-06-22T08:43:16;12.55;;;11.45;;
42964;SDS011;28604;51.204;22.552;2023-06-22T08:45:42;12.40;;;10.32;;
42964;SDS011;28604;51.204;22.552;2023-06-22T08:48:08;12.02;;;10.95;;
42964;SDS011;28604;51.204;22.552;2023-06-22T08:50:33;11.98;;;11.00;;
42964;SDS011;28604;51.204;22.552;2023-06-22T08:53:00;10.82;;;10.02;;
42964;SDS011;28604;51.204;22.552;2023-06-22T08:55:25;12.20;;;11.20;;
42964;SDS011;28604;51.204;22.552;2023-06-22T08:57:51;13.63;;;12.35;;
42964;SDS011;28604;51.204;22.552;2023-06-22T09:00:17;10.32;;;9.43;;
42964;SDS011;28604;51.204;22.552;2023-06-22T09:02:46;12.07;;;11.07;;
42964;SDS011;28604;51.204;22.552;2023-06-22T09:05:12;11.75;;;10.77;;
42964;SDS011;28604;51.204;22.552;2023-06-22T09:07:39;11.35;;;10.27;;
42964;SDS011;28604;51.204;22.552;2023-06-22T09:10:05;11.77;;;10.63;;
42964;SDS011;28604;51.204;22.552;2023-06-22T09:12:32;11.10;;;10.25;;
42964;SDS011;28604;51.204;22.552;2023-06-22T09:14:58;11.35;;;10.43;;
42964;SDS011;28604;51.204;22.552;2023-06-22T09:17:29;14.70;;;11.02;;
42964;SDS011;28604;51.204;22.552;2023-06-22T09:19:55;12.68;;;10.40;;
42964;SDS011;28604;51.204;22.552;2023-06-22T09:22:21;11.95;;;11.05;;
42964;SDS011;28604;51.204;22.552;2023-06-22T09:24:47;13.10;;;11.23;;
42964;SDS011;28604;51.204;22.552;2023-06-22T09:27:13;11.13;;;10.23;;
42964;SDS011;28604;51.204;22.552;2023-06-22T09:29:39;11.65;;;10.85;;
42964;SDS011;28604;51.204;22.552;2023-06-22T09:32:05;11.02;;;9.98;;
42964;SDS011;28604;51.204;22.552;2023-06-22T09:34:31;14.27;;;10.35;;
42964;SDS011;28604;51.204;22.552;2023-06-22T09:36:57;11.85;;;10.85;;
42964;SDS011;28604;51.204;22.552;2023-06-22T09:39:25;12.48;;;11.32;;
42964;SDS011;28604;51.204;22.552;2023-06-22T09:41:51;13.10;;;11.48;;
42964;SDS011;28604;51.204;22.552;2023-06-22T09:44:18;12.02;;;10.93;;
42964;SDS011;28604;51.204;22.552;2023-06-22T09:46:44;14.35;;;10.95;;
42964;SDS011;28604;51.204;22.552;2023-06-22T09:49:09;12.00;;;10.82;;
42964;SDS011;28604;51.204;22.552;2023-06-22T09:51:35;12.93;;;11.73;;
42964;SDS011;28604;51.204;22.552;2023-06-22T09:54:01;12.18;;;11.02;;
42964;SDS011;28604;51.204;22.552;2023-06-22T09:56:27;12.30;;;11.13;;
42964;SDS011;28604;51.204;22.552;2023-06-22T09:58:55;11.32;;;10.43;;
42964;SDS011;28604;51.204;22.552;2023-06-22T10:01:21;19.15;;;10.85;;
42964;SDS011;28604;51.204;22.552;2023-06-22T10:03:47;12.68;;;10.85;;
42964;SDS011;28604;51.204;22.552;2023-06-22T10:06:14;11.77;;;10.77;;
42964;SDS011;28604;51.204;22.552;2023-06-22T10:08:39;13.20;;;10.52;;
42964;SDS011;28604;51.204;22.552;2023-06-22T10:11:06;15.10;;;11.20;;
42964;SDS011;28604;51.204;22.552;2023-06-22T10:13:32;12.50;;;11.30;;
42964;SDS011;28604;51.204;22.552;2023-06-22T10:15:58;36.38;;;15.60;;
42964;SDS011;28604;51.204;22.552;2023-06-22T10:18:24;13.70;;;10.95;;
42964;SDS011;28604;51.204;22.552;2023-06-22T10:20:50;12.60;;;11.40;;
42964;SDS011;28604;51.204;22.552;2023-06-22T10:23:17;12.00;;;10.93;;
42964;SDS011;28604;51.204;22.552;2023-06-22T10:25:45;13.00;;;11.68;;
42964;SDS011;28604;51.204;22.552;2023-06-22T10:28:12;12.55;;;11.25;;
42964;SDS011;28604;51.204;22.552;2023-06-22T10:30:39;12.52;;;11.23;;
42964;SDS011;28604;51.204;22.552;2023-06-22T10:33:08;11.88;;;10.68;;
42964;SDS011;28604;51.204;22.552;2023-06-22T10:35:35;11.52;;;10.68;;
42964;SDS011;28604;51.204;22.552;2023-06-22T10:38:03;11.50;;;10.70;;
42964;SDS011;28604;51.204;22.552;2023-06-22T10:40:29;12.98;;;11.77;;
42964;SDS011;28604;51.204;22.552;2023-06-22T10:42:55;11.80;;;11.00;;
42964;SDS011;28604;51.204;22.552;2023-06-22T10:45:22;13.00;;;11.30;;
42964;SDS011;28604;51.204;22.552;2023-06-22T10:47:47;11.68;;;10.68;;
42964;SDS011;28604;51.204;22.552;2023-06-22T10:50:14;12.80;;;11.55;;
42964;SDS011;28604;51.204;22.552;2023-06-22T10:52:40;15.38;;;12.82;;
42964;SDS011;28604;51.204;22.552;2023-06-22T10:55:09;14.35;;;12.38;;
42964;SDS011;28604;51.204;22.552;2023-06-22T10:57:35;12.57;;;11.48;;
42964;SDS011;28604;51.204;22.552;2023-06-22T11:00:02;13.00;;;11.35;;
42964;SDS011;28604;51.204;22.552;2023-06-22T11:02:31;13.55;;;12.18;;
42964;SDS011;28604;51.204;22.552;2023-06-22T11:04:57;13.77;;;12.57;;
42964;SDS011;28604;51.204;22.552;2023-06-22T11:07:26;13.35;;;12.00;;
42964;SDS011;28604;51.204;22.552;2023-06-22T11:09:54;14.02;;;12.85;;
42964;SDS011;28604;51.204;22.552;2023-06-22T11:12:20;12.85;;;11.82;;
42964;SDS011;28604;51.204;22.552;2023-06-22T11:14:46;11.68;;;10.65;;
42964;SDS011;28604;51.204;22.552;2023-06-22T11:17:12;12.02;;;10.50;;
42964;SDS011;28604;51.204;22.552;2023-06-22T11:19:38;9.95;;;9.10;;
42964;SDS011;28604;51.204;22.552;2023-06-22T11:22:04;11.77;;;8.60;;
42964;SDS011;28604;51.204;22.552;2023-06-22T11:24:30;9.00;;;8.40;;
42964;SDS011;28604;51.204;22.552;2023-06-22T11:26:56;8.63;;;8.02;;
42964;SDS011;28604;51.204;22.552;2023-06-22T11:29:22;9.30;;;8.70;;
42964;SDS011;28604;51.204;22.552;2023-06-22T11:31:48;10.45;;;9.65;;
42964;SDS011;28604;51.204;22.552;2023-06-22T11:34:14;10.68;;;9.15;;
42964;SDS011;28604;51.204;22.552;2023-06-22T11:36:41;9.68;;;8.93;;
42964;SDS011;28604;51.204;22.552;2023-06-22T11:39:08;11.13;;;8.57;;
42964;SDS011;28604;51.204;22.552;2023-06-22T11:41:34;8.77;;;8.07;;
42964;SDS011;28604;51.204;22.552;2023-06-22T11:44:01;8.63;;;8.00;;
42964;SDS011;28604;51.204;22.552;2023-06-22T11:46:26;9.23;;;7.78;;
42964;SDS011;28604;51.204;22.552;2023-06-22T11:48:53;8.32;;;7.55;;
42964;SDS011;28604;51.204;22.552;2023-06-22T11:51:18;12.18;;;7.57;;
42964;SDS011;28604;51.204;22.552;2023-06-22T11:53:44;8.02;;;7.18;;
42964;SDS011;28604;51.204;22.552;2023-06-22T11:56:10;7.90;;;7.30;;
42964;SDS011;28604;51.204;22.552;2023-06-22T11:58:36;8.65;;;7.85;;
42964;SDS011;28604;51.204;22.552;2023-06-22T12:01:02;8.75;;;7.78;;
42964;SDS011;28604;51.204;22.552;2023-06-22T12:03:28;7.55;;;6.88;;
42964;SDS011;28604;51.204;22.552;2023-06-22T12:05:55;6.70;;;6.20;;
42964;SDS011;28604;51.204;22.552;2023-06-22T12:08:21;6.60;;;6.20;;
42964;SDS011;28604;51.204;22.552;2023-06-22T12:10:49;7.05;;;6.47;;
42964;SDS011;28604;51.204;22.552;2023-06-22T12:13:15;6.90;;;6.30;;
42964;SDS011;28604;51.204;22.552;2023-06-22T12:15:41;5.45;;;5.15;;
42964;SDS011;28604;51.204;22.552;2023-06-22T12:18:07;6.35;;;5.88;;
42964;SDS011;28604;51.204;22.552;2023-06-22T12:20:34;9.25;;;5.30;;
42964;SDS011;28604;51.204;22.552;2023-06-22T12:23:01;6.20;;;5.80;;
42964;SDS011;28604;51.204;22.552;2023-06-22T12:25:26;5.95;;;5.55;;
42964;SDS011;28604;51.204;22.552;2023-06-22T12:27:52;7.75;;;5.07;;
42964;SDS011;28604;51.204;22.552;2023-06-22T12:30:19;6.30;;;5.90;;
42964;SDS011;28604;51.204;22.552;2023-06-22T12:32:46;6.82;;;6.05;;
42964;SDS011;28604;51.204;22.552;2023-06-22T12:35:12;7.45;;;6.85;;
42964;SDS011;28604;51.204;22.552;2023-06-22T12:37:42;7.38;;;6.68;;
42964;SDS011;28604;51.204;22.552;2023-06-22T12:40:08;7.43;;;6.80;;
42964;SDS011;28604;51.204;22.552;2023-06-22T12:42:35;7.25;;;6.53;;
42964;SDS011;28604;51.204;22.552;2023-06-22T12:45:01;7.78;;;6.10;;
42964;SDS011;28604;51.204;22.552;2023-06-22T12:47:27;7.47;;;5.53;;
42964;SDS011;28604;51.204;22.552;2023-06-22T12:49:53;5.95;;;5.60;;
42964;SDS011;28604;51.204;22.552;2023-06-22T12:52:19;6.07;;;5.75;;
42964;SDS011;28604;51.204;22.552;2023-06-22T12:54:45;6.88;;;6.50;;
42964;SDS011;28604;51.204;22.552;2023-06-22T12:57:11;6.40;;;5.80;;
42964;SDS011;28604;51.204;22.552;2023-06-22T12:59:37;6.85;;;6.32;;
42964;SDS011;28604;51.204;22.552;2023-06-22T13:02:03;6.35;;;5.75;;
42964;SDS011;28604;51.204;22.552;2023-06-22T13:04:29;7.13;;;6.47;;
42964;SDS011;28604;51.204;22.552;2023-06-22T13:06:55;6.85;;;6.15;;
42964;SDS011;28604;51.204;22.552;2023-06-22T13:09:21;6.60;;;6.20;;
42964;SDS011;28604;51.204;22.552;2023-06-22T13:11:47;6.07;;;5.78;;
42964;SDS011;28604;51.204;22.552;2023-06-22T13:14:12;6.20;;;5.90;;
42964;SDS011;28604;51.204;22.552;2023-06-22T13:16:39;6.07;;;5.68;;
42964;SDS011;28604;51.204;22.552;2023-06-22T13:19:04;10.95;;;5.43;;
42964;SDS011;28604;51.204;22.552;2023-06-22T13:21:30;5.68;;;5.28;;
42964;SDS011;28604;51.204;22.552;2023-06-22T13:23:56;7.25;;;5.93;;
42964;SDS011;28604;51.204;22.552;2023-06-22T13:26:23;7.28;;;6.68;;
42964;SDS011;28604;51.204;22.552;2023-06-22T13:28:49;7.20;;;6.70;;
42964;SDS011;28604;51.204;22.552;2023-06-22T13:31:15;11.60;;;6.43;;
42964;SDS011;28604;51.204;22.552;2023-06-22T13:33:41;7.15;;;6.28;;
42964;SDS011;28604;51.204;22.552;2023-06-22T13:36:07;6.75;;;6.13;;
42964;SDS011;28604;51.204;22.552;2023-06-22T13:38:35;7.68;;;6.05;;
42964;SDS011;28604;51.204;22.552;2023-06-22T13:41:04;5.97;;;5.68;;
42964;SDS011;28604;51.204;22.552;2023-06-22T13:43:30;6.47;;;5.13;;
42964;SDS011;28604;51.204;22.552;2023-06-22T13:45:57;6.68;;;6.03;;
42964;SDS011;28604;51.204;22.552;2023-06-22T13:48:23;8.25;;;5.35;;
42964;SDS011;28604;51.204;22.552;2023-06-22T13:50:51;7.35;;;4.75;;
42964;SDS011;28604;51.204;22.552;2023-06-22T13:53:18;5.78;;;5.18;;
42964;SDS011;28604;51.204;22.552;2023-06-22T13:55:44;7.03;;;5.13;;
42964;SDS011;28604;51.204;22.552;2023-06-22T13:58:10;5.50;;;5.10;;
42964;SDS011;28604;51.204;22.552;2023-06-22T14:00:36;5.80;;;4.90;;
42964;SDS011;28604;51.204;22.552;2023-06-22T14:03:02;5.13;;;4.82;;
42964;SDS011;28604;51.204;22.552;2023-06-22T14:05:28;4.45;;;4.18;;
42964;SDS011;28604;51.204;22.552;2023-06-22T14:07:54;4.55;;;4.35;;
42964;SDS011;28604;51.204;22.552;2023-06-22T14:10:20;6.45;;;3.70;;
42964;SDS011;28604;51.204;22.552;2023-06-22T14:12:46;3.88;;;3.53;;
42964;SDS011;28604;51.204;22.552;2023-06-22T14:15:12;4.05;;;3.75;;
42964;SDS011;28604;51.204;22.552;2023-06-22T14:17:38;3.67;;;3.42;;
42964;SDS011;28604;51.204;22.552;2023-06-22T14:20:04;3.67;;;3.33;;
42964;SDS011;28604;51.204;22.552;2023-06-22T14:22:32;3.45;;;3.33;;
42964;SDS011;28604;51.204;22.552;2023-06-22T14:25:00;2.85;;;2.78;;
42964;SDS011;28604;51.204;22.552;2023-06-22T14:27:26;3.30;;;3.10;;
42964;SDS011;28604;51.204;22.552;2023-06-22T14:29:53;4.57;;;4.15;;
42964;SDS011;28604;51.204;22.552;2023-06-22T14:32:19;4.97;;;3.75;;
42964;SDS011;28604;51.204;22.552;2023-06-22T14:34:45;3.38;;;3.00;;
42964;SDS011;28604;51.204;22.552;2023-06-22T14:37:11;3.65;;;3.45;;
42964;SDS011;28604;51.204;22.552;2023-06-22T14:39:38;3.28;;;3.00;;
42964;SDS011;28604;51.204;22.552;2023-06-22T14:42:08;2.90;;;2.80;;